createdAt,value
2018-01-12T00:00:01.056Z,0
2018-01-12T00:01:01.307Z,0
2018-01-12T00:02:01.052Z,0
2018-01-12T00:03:01.500Z,0
2018-01-12T00:04:00.788Z,0
2018-01-12T00:05:00.769Z,0
2018-01-12T00:06:01.266Z,0
2018-01-12T00:07:00.752Z,0
2018-01-12T00:08:01.159Z,0
2018-01-12T00:09:00.491Z,0
2018-01-12T00:10:01.232Z,0
2018-01-12T00:11:01.239Z,0
2018-01-12T00:12:00.466Z,0
2018-01-12T00:13:01.113Z,0
2018-01-12T00:14:00.953Z,0
2018-01-12T00:15:00.433Z,0
2018-01-12T00:16:00.932Z,0
2018-01-12T00:17:01.194Z,0
2018-01-12T00:18:00.668Z,0
2018-01-12T00:19:01.164Z,0
2018-01-12T00:20:01.166Z,0
2018-01-12T00:21:00.900Z,0
2018-01-12T00:22:00.640Z,0
2018-01-12T00:23:00.885Z,0
2018-01-12T00:24:00.882Z,0
2018-01-12T00:25:01.120Z,0
2018-01-12T00:26:00.874Z,0
2018-01-12T00:27:00.855Z,0
2018-01-12T00:28:00.579Z,0
2018-01-12T00:29:01.081Z,0
2018-01-12T00:30:00.836Z,0
2018-01-12T00:31:01.068Z,0
2018-01-12T00:32:00.812Z,0
2018-01-12T00:33:01.385Z,0
2018-01-12T00:34:01.037Z,0
2018-01-12T00:35:00.780Z,0
2018-01-12T00:36:00.779Z,0
2018-01-12T00:37:01.017Z,0
2018-01-12T00:38:00.777Z,0
2018-01-12T00:39:00.743Z,0
2018-01-12T00:40:00.990Z,0
2018-01-12T00:41:00.988Z,0
2018-01-12T00:42:00.728Z,0
2018-01-12T00:43:00.957Z,0
2018-01-12T00:44:01.015Z,0
2018-01-12T00:45:00.945Z,0
2018-01-12T00:46:00.942Z,0
2018-01-12T00:47:00.940Z,0
2018-01-12T00:48:01.489Z,0
2018-01-12T00:49:00.423Z,0
2018-01-12T00:50:00.404Z,0
2018-01-12T00:51:00.404Z,0
2018-01-12T00:52:00.887Z,0
2018-01-12T00:53:00.656Z,0
2018-01-12T00:54:00.383Z,0
2018-01-12T00:55:00.367Z,0
2018-01-12T00:56:00.871Z,0
2018-01-12T00:57:00.873Z,0
2018-01-12T00:58:00.594Z,0
2018-01-12T00:59:00.584Z,0
2018-01-12T01:00:00.579Z,0
2018-01-12T01:01:00.828Z,0
2018-01-12T01:02:00.322Z,0
2018-01-12T01:03:00.561Z,0
2018-01-12T01:04:00.844Z,0
2018-01-12T01:05:00.062Z,0
2018-01-12T01:06:00.789Z,0
2018-01-12T01:07:00.791Z,0
2018-01-12T01:08:00.797Z,0
2018-01-12T01:09:00.260Z,0
2018-01-12T01:10:00.251Z,0
2018-01-12T01:11:00.250Z,0
2018-01-12T01:12:00.737Z,0
2018-01-12T01:13:00.504Z,0
2018-01-12T01:14:00.216Z,0
2018-01-12T01:15:00.457Z,0
2018-01-12T01:16:00.467Z,0
2018-01-12T01:17:00.192Z,0
2018-01-12T01:18:00.697Z,0
2018-01-12T01:19:00.437Z,0
2018-01-12T01:20:00.437Z,0
2018-01-12T01:21:00.167Z,0
2018-01-12T01:22:00.671Z,0
2018-01-12T01:23:00.407Z,0
2018-01-12T01:24:00.393Z,0
2018-01-12T01:25:00.646Z,0
2018-01-12T01:26:00.628Z,0
2018-01-12T01:27:00.627Z,0
2018-01-12T01:28:00.106Z,0
2018-01-12T01:29:00.658Z,0
2018-01-12T01:30:00.105Z,0
2018-01-12T01:31:00.102Z,0
2018-01-12T01:32:00.327Z,0
2018-01-12T01:33:00.571Z,0
2018-01-12T01:34:01.017Z,0
2018-01-12T01:34:59.808Z,0
2018-01-12T01:36:00.065Z,0
2018-01-12T01:37:00.544Z,0
2018-01-12T01:38:00.064Z,0
2018-01-12T01:39:00.279Z,0
2018-01-12T01:40:00.286Z,0
2018-01-12T01:41:00.013Z,0
2018-01-12T01:42:00.520Z,0
2018-01-12T01:42:59.994Z,0
2018-01-12T01:44:00.250Z,0
2018-01-12T01:45:00.513Z,0
2018-01-12T01:46:00.227Z,0
2018-01-12T01:47:00.225Z,0
2018-01-12T01:48:00.475Z,0
2018-01-12T01:48:59.947Z,0
2018-01-12T01:49:59.955Z,0
2018-01-12T01:51:00.180Z,0
2018-01-12T01:52:00.464Z,0
2018-01-12T01:53:00.164Z,0
2018-01-12T01:54:00.417Z,0
2018-01-12T01:54:59.910Z,0
2018-01-12T01:56:00.146Z,0
2018-01-12T01:56:59.885Z,0
2018-01-12T01:57:59.878Z,0
2018-01-12T01:59:00.133Z,0
2018-01-12T02:00:00.124Z,0
2018-01-12T02:00:59.856Z,0
2018-01-12T02:02:00.367Z,0
2018-01-12T02:03:00.411Z,0
2018-01-12T02:04:02.567Z,0
2018-01-12T02:05:00.082Z,0
2018-01-12T02:06:00.333Z,0
2018-01-12T02:07:00.321Z,0
2018-01-12T02:08:00.074Z,0
2018-01-12T02:09:00.062Z,0
2018-01-12T02:10:00.079Z,0
2018-01-12T02:11:00.042Z,0
2018-01-12T02:12:00.037Z,0
2018-01-12T02:12:59.518Z,0
2018-01-12T02:14:00.269Z,0
2018-01-12T02:14:59.498Z,0
2018-01-12T02:15:59.761Z,0
2018-01-12T02:17:00.262Z,0
2018-01-12T02:17:59.991Z,0
2018-01-12T02:18:59.923Z,0
2018-01-12T02:19:59.965Z,0
2018-01-12T02:21:00.216Z,0
2018-01-12T02:21:59.725Z,0
2018-01-12T02:22:59.700Z,0
2018-01-12T02:23:59.713Z,0
2018-01-12T02:24:59.962Z,0
2018-01-12T02:25:59.178Z,0
2018-01-12T02:26:59.715Z,0
2018-01-12T02:28:00.185Z,0
2018-01-12T02:29:00.017Z,0
2018-01-12T02:30:00.152Z,0
2018-01-12T02:31:00.149Z,0
2018-01-12T02:31:59.900Z,0
2018-01-12T02:32:59.616Z,0
2018-01-12T02:34:00.583Z,0
2018-01-12T02:34:59.849Z,0
2018-01-12T02:36:00.111Z,0
2018-01-12T02:37:00.110Z,0
2018-01-12T02:37:59.847Z,0
2018-01-12T02:38:59.826Z,0
2018-01-12T02:39:59.823Z,0
2018-01-12T02:41:00.071Z,0
2018-01-12T02:41:59.302Z,0
2018-01-12T02:42:59.814Z,0
2018-01-12T02:43:59.799Z,0
2018-01-12T02:44:59.785Z,0
2018-01-12T02:46:00.035Z,0
2018-01-12T02:46:59.521Z,0
2018-01-12T02:47:59.777Z,0
2018-01-12T02:49:01.611Z,0
2018-01-12T02:49:59.762Z,0
2018-01-12T02:50:59.991Z,0
2018-01-12T02:51:59.746Z,0
2018-01-12T02:52:59.476Z,0
2018-01-12T02:53:59.722Z,0
2018-01-12T02:54:59.706Z,0
2018-01-12T02:55:59.953Z,0
2018-01-12T02:57:00.003Z,0
2018-01-12T02:57:59.443Z,0
2018-01-12T02:58:59.695Z,0
2018-01-12T02:59:59.681Z,0
2018-01-12T03:00:59.405Z,0
2018-01-12T03:01:59.154Z,0
2018-01-12T03:02:59.644Z,0
2018-01-12T03:03:59.901Z,0
2018-01-12T03:05:01.130Z,0
2018-01-12T03:05:58.868Z,0
2018-01-12T03:06:59.371Z,0
2018-01-12T03:07:59.612Z,0
2018-01-12T03:08:59.601Z,0
2018-01-12T03:09:59.336Z,0
2018-01-12T03:10:59.589Z,0
2018-01-12T03:11:59.588Z,0
2018-01-12T03:12:59.624Z,0
2018-01-12T03:13:59.317Z,0
2018-01-12T03:14:59.576Z,0
2018-01-12T03:15:59.604Z,0
2018-01-12T03:16:59.801Z,0
2018-01-12T03:17:59.547Z,0
2018-01-12T03:18:59.293Z,0
2018-01-12T03:19:59.786Z,0
2018-01-12T03:20:59.278Z,0
2018-01-12T03:21:59.763Z,0
2018-01-12T03:22:59.504Z,0
2018-01-12T03:23:59.499Z,0
2018-01-12T03:24:59.748Z,0
2018-01-12T03:25:59.804Z,0
2018-01-12T03:26:59.725Z,0
2018-01-12T03:27:59.478Z,0
2018-01-12T03:28:59.719Z,0
2018-01-12T03:29:59.697Z,0
2018-01-12T03:30:59.708Z,0
2018-01-12T03:31:59.178Z,0
2018-01-12T03:32:58.917Z,0
2018-01-12T03:33:59.685Z,0
2018-01-12T03:35:01.203Z,0
2018-01-12T03:35:59.706Z,0
2018-01-12T03:36:59.162Z,0
2018-01-12T03:37:59.128Z,0
2018-01-12T03:38:59.628Z,0
2018-01-12T03:39:59.655Z,0
2018-01-12T03:40:59.623Z,0
2018-01-12T03:41:59.625Z,0
2018-01-12T03:42:59.595Z,0
2018-01-12T03:43:59.609Z,0
2018-01-12T03:44:59.581Z,0
2018-01-12T03:45:59.330Z,0
2018-01-12T03:46:59.325Z,0
2018-01-12T03:47:59.560Z,0
2018-01-12T03:48:59.307Z,0
2018-01-12T03:49:59.594Z,0
2018-01-12T03:50:59.536Z,0
2018-01-12T03:51:59.539Z,0
2018-01-12T03:52:59.276Z,0
2018-01-12T03:53:59.270Z,0
2018-01-12T03:54:59.512Z,0
2018-01-12T03:55:59.512Z,0
2018-01-12T03:56:59.253Z,0
2018-01-12T03:57:59.556Z,0
2018-01-12T03:58:59.219Z,0
2018-01-12T03:59:59.481Z,0
2018-01-12T04:00:58.977Z,0
2018-01-12T04:01:59.458Z,0
2018-01-12T04:02:59.455Z,0
2018-01-12T04:03:59.453Z,0
2018-01-12T04:05:04.276Z,0
2018-01-12T04:05:59.433Z,0
2018-01-12T04:06:59.181Z,0
2018-01-12T04:07:59.441Z,0
2018-01-12T04:08:59.152Z,0
2018-01-12T04:09:59.398Z,0
2018-01-12T04:10:59.143Z,0
2018-01-12T04:11:59.383Z,0
2018-01-12T04:12:58.911Z,0
2018-01-12T04:13:59.402Z,0
2018-01-12T04:14:59.374Z,0
2018-01-12T04:15:59.115Z,0
2018-01-12T04:16:59.353Z,0
2018-01-12T04:17:59.085Z,0
2018-01-12T04:18:58.837Z,0
2018-01-12T04:19:58.825Z,0
2018-01-12T04:20:59.860Z,0
2018-01-12T04:21:59.068Z,0
2018-01-12T04:22:59.052Z,0
2018-01-12T04:23:59.301Z,0
2018-01-12T04:24:59.289Z,0
2018-01-12T04:25:59.030Z,0
2018-01-12T04:26:59.017Z,0
2018-01-12T04:27:59.016Z,0
2018-01-12T04:28:59.004Z,0
2018-01-12T04:29:59.251Z,0
2018-01-12T04:30:59.238Z,0
2018-01-12T04:31:58.982Z,0
2018-01-12T04:32:58.717Z,0
2018-01-12T04:33:59.212Z,0
2018-01-12T04:34:59.209Z,0
2018-01-12T04:35:59.499Z,0
2018-01-12T04:36:58.691Z,0
2018-01-12T04:37:58.930Z,0
2018-01-12T04:38:59.179Z,0
2018-01-12T04:39:58.667Z,0
2018-01-12T04:40:59.164Z,0
2018-01-12T04:41:58.649Z,0
2018-01-12T04:42:58.909Z,0
2018-01-12T04:43:59.133Z,0
2018-01-12T04:44:58.877Z,0
2018-01-12T04:45:58.876Z,0
2018-01-12T04:46:59.141Z,0
2018-01-12T04:47:58.854Z,0
2018-01-12T04:48:59.107Z,0
2018-01-12T04:49:58.834Z,0
2018-01-12T04:50:58.835Z,0
2018-01-12T04:51:58.824Z,0
2018-01-12T04:52:58.558Z,0
2018-01-12T04:53:59.079Z,0
2018-01-12T04:54:58.805Z,0
2018-01-12T04:55:58.799Z,0
2018-01-12T04:56:58.800Z,0
2018-01-12T04:57:59.049Z,0
2018-01-12T04:58:58.531Z,0
2018-01-12T04:59:58.777Z,0
2018-01-12T05:00:58.771Z,0
2018-01-12T05:01:59.012Z,0
2018-01-12T05:02:58.769Z,0
2018-01-12T05:03:59.092Z,0
2018-01-12T05:04:58.481Z,0
2018-01-12T05:06:01.843Z,0
2018-01-12T05:06:58.975Z,0
2018-01-12T05:07:58.969Z,0
2018-01-12T05:08:58.997Z,0
2018-01-12T05:09:58.956Z,0
2018-01-12T05:10:58.946Z,0
2018-01-12T05:11:58.934Z,0
2018-01-12T05:12:58.675Z,0
2018-01-12T05:13:58.930Z,0
2018-01-12T05:14:58.658Z,0
2018-01-12T05:15:58.661Z,0
2018-01-12T05:16:58.674Z,0
2018-01-12T05:17:58.892Z,0
2018-01-12T05:18:58.883Z,0
2018-01-12T05:19:58.875Z,0
2018-01-12T05:20:58.883Z,0
2018-01-12T05:22:00.090Z,0
2018-01-12T05:22:58.614Z,0
2018-01-12T05:23:58.830Z,0
2018-01-12T05:24:58.827Z,0
2018-01-12T05:25:58.812Z,0
2018-01-12T05:26:58.814Z,0
2018-01-12T05:27:58.876Z,0
2018-01-12T05:28:58.538Z,0
2018-01-12T05:29:58.795Z,0
2018-01-12T05:30:58.778Z,0
2018-01-12T05:31:58.764Z,0
2018-01-12T05:32:58.261Z,0
2018-01-12T05:33:58.247Z,0
2018-01-12T05:34:58.821Z,0
2018-01-12T05:35:58.496Z,0
2018-01-12T05:37:02.235Z,0
2018-01-12T05:37:58.743Z,0
2018-01-12T05:38:58.735Z,0
2018-01-12T05:39:58.456Z,0
2018-01-12T05:40:58.698Z,0
2018-01-12T05:41:58.197Z,0
2018-01-12T05:42:58.182Z,0
2018-01-12T05:43:58.178Z,0
2018-01-12T05:44:58.429Z,0
2018-01-12T05:45:58.415Z,0
2018-01-12T05:46:58.676Z,0
2018-01-12T05:47:58.653Z,0
2018-01-12T05:48:58.635Z,0
2018-01-12T05:49:58.394Z,0
2018-01-12T05:50:58.615Z,0
2018-01-12T05:51:58.116Z,0
2018-01-12T05:52:58.615Z,0
2018-01-12T05:53:58.349Z,0
2018-01-12T05:54:58.359Z,0
2018-01-12T05:55:58.332Z,0
2018-01-12T05:56:58.326Z,0
2018-01-12T05:57:58.578Z,0
2018-01-12T05:58:58.307Z,0
2018-01-12T05:59:58.306Z,0
2018-01-12T06:00:58.545Z,0
2018-01-12T06:01:58.545Z,0
2018-01-12T06:02:58.289Z,0
2018-01-12T06:03:58.281Z,0
2018-01-12T06:04:57.755Z,0
2018-01-12T06:05:58.579Z,0
2018-01-12T06:06:57.995Z,0
2018-01-12T06:07:59.900Z,0
2018-01-12T06:08:58.524Z,0
2018-01-12T06:09:58.227Z,0
2018-01-12T06:10:58.465Z,0
2018-01-12T06:11:57.951Z,0
2018-01-12T06:12:58.457Z,0
2018-01-12T06:13:57.939Z,0
2018-01-12T06:14:58.177Z,0
2018-01-12T06:15:57.932Z,0
2018-01-12T06:16:57.935Z,0
2018-01-12T06:17:58.425Z,0
2018-01-12T06:18:58.147Z,0
2018-01-12T06:19:58.400Z,0
2018-01-12T06:20:57.891Z,0
2018-01-12T06:21:57.883Z,0
2018-01-12T06:22:57.878Z,0
2018-01-12T06:23:58.110Z,0
2018-01-12T06:24:58.368Z,0
2018-01-12T06:25:57.843Z,0
2018-01-12T06:26:58.332Z,0
2018-01-12T06:27:58.094Z,0
2018-01-12T06:28:58.320Z,0
2018-01-12T06:29:58.082Z,0
2018-01-12T06:30:58.323Z,0
2018-01-12T06:31:58.077Z,0
2018-01-12T06:32:58.096Z,0
2018-01-12T06:33:58.282Z,0
2018-01-12T06:34:57.512Z,0
2018-01-12T06:35:58.018Z,0
2018-01-12T06:36:58.262Z,0
2018-01-12T06:38:00.965Z,0
2018-01-12T06:38:57.733Z,0
2018-01-12T06:39:57.976Z,0
2018-01-12T06:40:58.228Z,0
2018-01-12T06:41:57.963Z,0
2018-01-12T06:42:57.472Z,0
2018-01-12T06:43:57.954Z,0
2018-01-12T06:44:57.695Z,0
2018-01-12T06:45:57.941Z,0
2018-01-12T06:46:58.175Z,0
2018-01-12T06:47:57.914Z,0
2018-01-12T06:48:57.918Z,0
2018-01-12T06:49:58.170Z,0
2018-01-12T06:50:58.150Z,0
2018-01-12T06:51:57.903Z,0
2018-01-12T06:52:57.874Z,0
2018-01-12T06:53:57.617Z,0
2018-01-12T06:54:58.114Z,0
2018-01-12T06:55:57.850Z,0
2018-01-12T06:56:57.846Z,0
2018-01-12T06:57:58.091Z,0
2018-01-12T06:58:57.829Z,0
2018-01-12T06:59:58.082Z,0
2018-01-12T07:00:57.361Z,0
2018-01-12T07:01:58.071Z,0
2018-01-12T07:02:57.808Z,0
2018-01-12T07:03:58.048Z,0
2018-01-12T07:04:57.799Z,0
2018-01-12T07:05:57.792Z,0
2018-01-12T07:06:58.026Z,0
2018-01-12T07:07:58.031Z,0
2018-01-12T07:08:59.819Z,0
2018-01-12T07:09:58.001Z,0
2018-01-12T07:10:57.996Z,0
2018-01-12T07:11:57.992Z,0
2018-01-12T07:12:57.473Z,0
2018-01-12T07:13:58.017Z,0
2018-01-12T07:14:57.717Z,0
2018-01-12T07:15:57.951Z,0
2018-01-12T07:16:57.951Z,0
2018-01-12T07:17:57.428Z,0
2018-01-12T07:18:57.922Z,0
2018-01-12T07:19:57.943Z,0
2018-01-12T07:20:57.666Z,0
2018-01-12T07:21:57.907Z,5
2018-01-12T07:22:57.692Z,5
2018-01-12T07:23:59.783Z,5
2018-01-12T07:24:57.911Z,5
2018-01-12T07:25:57.614Z,5
2018-01-12T07:26:57.613Z,5
2018-01-12T07:27:57.857Z,5
2018-01-12T07:28:57.594Z,5
2018-01-12T07:29:57.838Z,5
2018-01-12T07:30:57.582Z,5
2018-01-12T07:31:57.329Z,10
2018-01-12T07:32:57.560Z,10
2018-01-12T07:33:57.316Z,10
2018-01-12T07:34:57.550Z,10
2018-01-12T07:35:57.296Z,10
2018-01-12T07:36:57.782Z,10
2018-01-12T07:37:57.778Z,10
2018-01-12T07:38:59.566Z,10
2018-01-12T07:39:57.754Z,10
2018-01-12T07:40:57.497Z,10
2018-01-12T07:41:57.243Z,10
2018-01-12T07:42:57.260Z,10
2018-01-12T07:43:57.476Z,15
2018-01-12T07:44:57.729Z,15
2018-01-12T07:45:57.717Z,15
2018-01-12T07:46:57.472Z,15
2018-01-12T07:47:57.760Z,15
2018-01-12T07:48:57.183Z,15
2018-01-12T07:49:57.436Z,20
2018-01-12T07:50:57.197Z,20
2018-01-12T07:51:57.426Z,20
2018-01-12T07:52:57.673Z,20
2018-01-12T07:53:57.411Z,20
2018-01-12T07:54:57.392Z,20
2018-01-12T07:55:57.383Z,20
2018-01-12T07:56:57.647Z,25
2018-01-12T07:57:57.365Z,25
2018-01-12T07:58:57.623Z,25
2018-01-12T07:59:57.094Z,25
2018-01-12T08:00:57.356Z,25
2018-01-12T08:01:56.845Z,25
2018-01-12T08:02:57.589Z,30
2018-01-12T08:03:57.335Z,30
2018-01-12T08:04:57.565Z,30
2018-01-12T08:05:57.570Z,30
2018-01-12T08:06:57.049Z,35
2018-01-12T08:07:57.545Z,35
2018-01-12T08:08:58.538Z,35
2018-01-12T08:09:57.335Z,35
2018-01-12T08:10:57.512Z,35
2018-01-12T08:11:57.264Z,40
2018-01-12T08:12:57.014Z,40
2018-01-12T08:13:56.985Z,45
2018-01-12T08:14:57.003Z,45
2018-01-12T08:15:57.224Z,45
2018-01-12T08:16:56.981Z,50
2018-01-12T08:17:56.972Z,50
2018-01-12T08:18:57.218Z,50
2018-01-12T08:19:56.973Z,55
2018-01-12T08:20:57.217Z,55
2018-01-12T08:21:57.192Z,60
2018-01-12T08:22:57.438Z,60
2018-01-12T08:23:56.922Z,65
2018-01-12T08:24:57.161Z,65
2018-01-12T08:25:56.916Z,65
2018-01-12T08:26:56.916Z,70
2018-01-12T08:27:56.893Z,70
2018-01-12T08:28:57.389Z,70
2018-01-12T08:29:57.373Z,75
2018-01-12T08:30:57.363Z,75
2018-01-12T08:31:57.372Z,80
2018-01-12T08:32:57.360Z,80
2018-01-12T08:33:57.353Z,85
2018-01-12T08:34:56.840Z,85
2018-01-12T08:35:57.326Z,85
2018-01-12T08:37:28.697Z,85
2018-01-12T08:37:56.822Z,85
2018-01-12T08:38:57.066Z,80
2018-01-12T08:39:57.056Z,80
2018-01-12T08:40:56.795Z,80
2018-01-12T08:41:57.059Z,80
2018-01-12T08:42:56.790Z,80
2018-01-12T08:43:56.769Z,80
2018-01-12T08:44:57.022Z,80
2018-01-12T08:45:57.022Z,85
2018-01-12T08:46:57.261Z,85
2018-01-12T08:47:57.284Z,85
2018-01-12T08:48:57.280Z,85
2018-01-12T08:49:56.735Z,85
2018-01-12T08:50:56.475Z,80
2018-01-12T08:51:56.984Z,80
2018-01-12T08:52:56.991Z,80
2018-01-12T08:53:56.715Z,80
2018-01-12T08:54:56.447Z,80
2018-01-12T08:55:57.025Z,85
2018-01-12T08:56:57.237Z,90
2018-01-12T08:57:57.200Z,90
2018-01-12T08:58:57.196Z,90
2018-01-12T08:59:56.875Z,95
2018-01-12T09:00:56.693Z,95
2018-01-12T09:01:56.400Z,95
2018-01-12T09:02:56.403Z,95
2018-01-12T09:03:56.642Z,95
2018-01-12T09:04:56.913Z,95
2018-01-12T09:05:57.123Z,95
2018-01-12T09:06:56.875Z,100
2018-01-12T09:07:57.120Z,100
2018-01-12T09:08:56.852Z,100
2018-01-12T09:09:58.169Z,100
2018-01-12T09:10:57.107Z,100
2018-01-12T09:11:56.866Z,100
2018-01-12T09:12:57.125Z,100
2018-01-12T09:13:56.830Z,100
2018-01-12T09:14:56.827Z,100
2018-01-12T09:15:56.830Z,95
2018-01-12T09:16:56.806Z,95
2018-01-12T09:17:56.827Z,95
2018-01-12T09:18:56.807Z,95
2018-01-12T09:19:56.288Z,95
2018-01-12T09:20:56.790Z,95
2018-01-12T09:21:56.279Z,95
2018-01-12T09:22:56.517Z,95
2018-01-12T09:23:56.819Z,90
2018-01-12T09:24:57.560Z,90
2018-01-12T09:25:56.755Z,90
2018-01-12T09:26:56.995Z,90
2018-01-12T09:27:56.982Z,90
2018-01-12T09:28:56.989Z,90
2018-01-12T09:29:56.740Z,90
2018-01-12T09:30:56.744Z,90
2018-01-12T09:31:56.735Z,90
2018-01-12T09:32:56.730Z,95
2018-01-12T09:33:56.696Z,95
2018-01-12T09:34:56.941Z,95
2018-01-12T09:35:56.452Z,95
2018-01-12T09:36:56.690Z,95
2018-01-12T09:37:56.431Z,95
2018-01-12T09:38:56.684Z,95
2018-01-12T09:39:56.673Z,95
2018-01-12T09:40:58.717Z,95
2018-01-12T09:41:56.681Z,95
2018-01-12T09:42:56.135Z,95
2018-01-12T09:43:56.394Z,100
2018-01-12T09:44:56.627Z,95
2018-01-12T09:45:56.875Z,100
2018-01-12T09:46:56.391Z,100
2018-01-12T09:47:56.354Z,100
2018-01-12T09:48:56.617Z,100
2018-01-12T09:49:56.608Z,100
2018-01-12T09:50:56.370Z,100
2018-01-12T09:51:56.079Z,100
2018-01-12T09:52:56.432Z,105
2018-01-12T09:53:56.572Z,105
2018-01-12T09:54:56.309Z,105
2018-01-12T09:55:56.305Z,110
2018-01-12T09:56:56.807Z,110
2018-01-12T09:57:56.567Z,110
2018-01-12T09:58:56.538Z,110
2018-01-12T09:59:56.540Z,110
2018-01-12T10:00:56.529Z,115
2018-01-12T10:01:56.262Z,115
2018-01-12T10:02:56.513Z,115
2018-01-12T10:03:56.512Z,120
2018-01-12T10:04:56.260Z,115
2018-01-12T10:05:57.298Z,115
2018-01-12T10:06:56.487Z,115
2018-01-12T10:07:56.486Z,115
2018-01-12T10:08:56.218Z,120
2018-01-12T10:09:56.226Z,130
2018-01-12T10:10:57.559Z,125
2018-01-12T10:11:56.465Z,120
2018-01-12T10:12:56.693Z,120
2018-01-12T10:13:56.192Z,120
2018-01-12T10:14:56.688Z,120
2018-01-12T10:15:56.427Z,120
2018-01-12T10:16:56.418Z,120
2018-01-12T10:17:56.158Z,120
2018-01-12T10:18:56.457Z,120
2018-01-12T10:19:56.490Z,120
2018-01-12T10:20:56.398Z,125
2018-01-12T10:21:56.134Z,125
2018-01-12T10:22:56.631Z,125
2018-01-12T10:52:52.392Z,135
2018-01-12T10:53:49.240Z,135
2018-01-12T10:54:49.486Z,135
2018-01-12T10:55:49.801Z,135
2018-01-12T10:56:49.445Z,135
2018-01-12T10:57:49.444Z,140
2018-01-12T10:58:49.683Z,135
2018-01-12T10:59:49.422Z,135
2018-01-12T11:00:49.154Z,135
2018-01-12T11:01:49.440Z,135
2018-01-12T11:02:49.411Z,135
2018-01-12T11:03:49.414Z,135
2018-01-12T11:04:49.375Z,140
2018-01-12T11:05:49.112Z,140
2018-01-12T11:06:49.455Z,145
2018-01-12T11:07:49.100Z,140
2018-01-12T11:08:49.617Z,140
2018-01-12T11:09:49.131Z,140
2018-01-12T11:10:49.079Z,140
2018-01-12T11:11:49.345Z,140
2018-01-12T11:12:48.809Z,140
2018-01-12T11:13:49.313Z,140
2018-01-12T11:14:49.058Z,140
2018-01-12T11:15:49.306Z,140
2018-01-12T11:16:49.098Z,140
2018-01-12T11:17:49.289Z,140
2018-01-12T11:18:49.528Z,140
2018-01-12T11:19:49.265Z,135
2018-01-12T11:20:49.017Z,135
2018-01-12T11:21:49.515Z,135
2018-01-12T11:22:49.844Z,135
2018-01-12T11:23:48.999Z,135
2018-01-12T11:24:49.244Z,135
2018-01-12T11:25:49.035Z,130
2018-01-12T11:26:49.494Z,130
2018-01-12T11:27:49.494Z,135
2018-01-12T11:28:48.980Z,130
2018-01-12T11:29:48.959Z,130
2018-01-12T11:30:49.214Z,135
2018-01-12T11:31:49.451Z,130
2018-01-12T11:32:49.195Z,130
2018-01-12T11:33:49.189Z,130
2018-01-12T11:34:49.180Z,125
2018-01-12T11:35:49.247Z,125
2018-01-12T11:36:48.432Z,120
2018-01-12T11:37:48.707Z,115
2018-01-12T11:38:49.180Z,115
2018-01-12T11:39:49.192Z,115
2018-01-12T11:40:49.161Z,115
2018-01-12T11:41:49.166Z,115
2018-01-12T11:42:48.930Z,115
2018-01-12T11:43:49.146Z,120
2018-01-12T11:44:48.898Z,125
2018-01-12T11:45:49.375Z,130
2018-01-12T11:46:48.892Z,130
2018-01-12T11:47:49.115Z,130
2018-01-12T11:48:49.115Z,130
2018-01-12T11:49:48.859Z,125
2018-01-12T11:50:48.858Z,125
2018-01-12T11:51:49.360Z,125
2018-01-12T11:52:50.347Z,120
2018-01-12T11:53:48.838Z,120
2018-01-12T11:54:48.830Z,120
2018-01-12T11:55:49.325Z,115
2018-01-12T11:56:48.825Z,115
2018-01-12T11:57:48.822Z,115
2018-01-12T11:58:49.061Z,110
2018-01-12T11:59:49.058Z,110
2018-01-12T12:00:49.290Z,110
2018-01-12T12:01:48.808Z,110
2018-01-12T12:02:49.042Z,110
2018-01-12T12:03:48.527Z,110
2018-01-12T12:04:49.031Z,105
2018-01-12T12:05:48.518Z,105
2018-01-12T12:06:49.016Z,100
2018-01-12T12:07:49.003Z,100
2018-01-12T12:08:49.013Z,95
2018-01-12T12:09:49.257Z,95
2018-01-12T12:10:48.992Z,95
2018-01-12T12:11:48.990Z,95
2018-01-12T12:12:48.739Z,95
2018-01-12T12:13:48.727Z,90
2018-01-12T12:14:48.724Z,90
2018-01-12T12:15:48.767Z,90
2018-01-12T12:16:48.718Z,90
2018-01-12T12:17:48.709Z,85
2018-01-12T12:18:48.956Z,85
2018-01-12T12:19:48.946Z,85
2018-01-12T12:20:49.195Z,85
2018-01-12T12:21:48.172Z,85
2018-01-12T12:22:53.135Z,80
2018-01-12T12:23:49.181Z,80
2018-01-12T12:24:49.173Z,80
2018-01-12T12:25:48.902Z,80
2018-01-12T12:26:48.903Z,75
2018-01-12T12:27:48.933Z,75
2018-01-12T12:28:49.699Z,75
2018-01-12T12:29:48.656Z,80
2018-01-12T12:30:48.637Z,80
2018-01-12T12:31:48.640Z,80
2018-01-12T12:32:48.634Z,80
2018-01-12T12:33:48.611Z,80
2018-01-12T12:34:49.105Z,75
2018-01-12T12:35:48.858Z,75
2018-01-12T12:36:48.345Z,75
2018-01-12T12:37:49.089Z,75
2018-01-12T12:38:49.155Z,75
2018-01-12T12:39:48.589Z,80
2018-01-12T12:40:48.570Z,80
2018-01-12T12:41:48.835Z,80
2018-01-12T12:42:49.073Z,80
2018-01-12T12:43:49.369Z,80
2018-01-12T12:44:48.309Z,80
2018-01-12T12:45:48.793Z,90
2018-01-12T12:46:48.788Z,85
2018-01-12T12:47:48.553Z,85
2018-01-12T12:48:48.797Z,90
2018-01-12T12:49:49.033Z,90
2018-01-12T12:50:48.530Z,90
2018-01-12T12:51:48.761Z,90
2018-01-12T12:52:48.808Z,90
2018-01-12T12:53:49.576Z,90
2018-01-12T12:54:48.761Z,90
2018-01-12T12:55:48.253Z,95
2018-01-12T12:56:48.492Z,95
2018-01-12T12:57:48.500Z,95
2018-01-12T12:58:48.738Z,95
2018-01-12T12:59:48.720Z,95
2018-01-12T13:00:48.495Z,95
2018-01-12T13:01:48.489Z,95
2018-01-12T13:02:48.214Z,95
2018-01-12T13:03:48.238Z,95
2018-01-12T13:04:48.713Z,95
2018-01-12T13:05:48.761Z,95
2018-01-12T13:06:48.698Z,95
2018-01-12T13:07:48.703Z,95
2018-01-12T13:08:48.689Z,95
2018-01-12T13:09:48.684Z,95
2018-01-12T13:10:48.427Z,95
2018-01-12T13:11:48.392Z,95
2018-01-12T13:12:48.420Z,95
2018-01-12T13:13:48.405Z,95
2018-01-12T13:14:48.139Z,95
2018-01-12T13:15:48.390Z,90
2018-01-12T13:16:48.121Z,95
2018-01-12T13:17:48.372Z,90
2018-01-12T13:18:48.134Z,90
2018-01-12T13:19:48.866Z,90
2018-01-12T13:20:48.124Z,90
2018-01-12T13:21:48.595Z,90
2018-01-12T13:22:48.113Z,85
2018-01-12T13:23:48.376Z,85
2018-01-12T13:24:48.580Z,85
2018-01-12T13:25:48.569Z,85
2018-01-12T13:26:48.326Z,85
2018-01-12T13:27:48.076Z,85
2018-01-12T13:28:48.556Z,85
2018-01-12T13:29:48.799Z,85
2018-01-12T13:30:48.298Z,80
2018-01-12T13:31:48.550Z,85
2018-01-12T13:32:48.792Z,80
2018-01-12T13:33:48.532Z,75
2018-01-12T13:34:48.532Z,75
2018-01-12T13:35:48.022Z,80
2018-01-12T13:36:48.517Z,80
2018-01-12T13:37:48.503Z,80
2018-01-12T13:38:50.346Z,80
2018-01-12T13:39:48.749Z,80
2018-01-12T13:40:48.742Z,80
2018-01-12T13:41:48.212Z,80
2018-01-12T13:42:48.708Z,80
2018-01-12T13:43:48.283Z,80
2018-01-12T13:44:48.462Z,80
2018-01-12T13:45:47.949Z,80
2018-01-12T13:46:48.202Z,75
2018-01-12T13:47:48.202Z,75
2018-01-12T13:48:48.419Z,75
2018-01-12T13:49:47.912Z,75
2018-01-12T13:50:47.916Z,75
2018-01-12T13:51:48.169Z,75
2018-01-12T13:52:48.407Z,70
2018-01-12T13:53:48.696Z,70
2018-01-12T13:54:51.894Z,70
2018-01-12T13:55:48.397Z,70
2018-01-12T13:56:48.131Z,70
2018-01-12T13:57:48.124Z,70
2018-01-12T13:58:47.881Z,70
2018-01-12T13:59:48.357Z,70
2018-01-12T14:00:48.106Z,70
2018-01-12T14:01:48.410Z,70
2018-01-12T14:02:48.594Z,70
2018-01-12T14:03:48.086Z,65
2018-01-12T14:04:48.081Z,65
2018-01-12T14:05:48.069Z,65
2018-01-12T14:06:48.066Z,65
2018-01-12T14:07:48.577Z,65
2018-01-12T14:08:48.357Z,65
2018-01-12T14:09:48.045Z,60
2018-01-12T14:10:48.293Z,60
2018-01-12T14:11:48.283Z,55
2018-01-12T14:12:48.533Z,55
2018-01-12T14:13:48.039Z,50
2018-01-12T14:14:48.034Z,50
2018-01-12T14:15:47.784Z,50
2018-01-12T14:16:48.257Z,50
2018-01-12T14:17:48.525Z,50
2018-01-12T14:18:48.251Z,50
2018-01-12T14:19:47.993Z,50
2018-01-12T14:20:47.983Z,50
2018-01-12T14:21:48.225Z,50
2018-01-12T14:22:48.223Z,50
2018-01-12T14:23:47.959Z,45
2018-01-12T14:24:49.206Z,45
2018-01-12T14:25:47.695Z,45
2018-01-12T14:26:47.995Z,40
2018-01-12T14:27:48.200Z,40
2018-01-12T14:28:48.447Z,40
2018-01-12T14:29:48.201Z,40
2018-01-12T14:30:47.421Z,35
2018-01-12T14:31:47.912Z,35
2018-01-12T14:32:48.204Z,35
2018-01-12T14:33:47.392Z,35
2018-01-12T14:34:47.461Z,30
2018-01-12T14:35:48.145Z,30
2018-01-12T14:36:48.129Z,30
2018-01-12T14:37:47.899Z,30
2018-01-12T14:38:47.868Z,30
2018-01-12T14:39:47.943Z,25
2018-01-12T14:40:48.112Z,25
2018-01-12T14:41:47.602Z,25
2018-01-12T14:42:47.843Z,25
2018-01-12T14:43:47.847Z,25
2018-01-12T14:44:47.573Z,25
2018-01-12T14:45:48.071Z,25
2018-01-12T14:46:47.808Z,25
2018-01-12T14:47:48.310Z,25
2018-01-12T14:48:48.061Z,20
2018-01-12T14:49:47.796Z,20
2018-01-12T14:50:47.533Z,20
2018-01-12T14:51:48.038Z,20
2018-01-12T14:52:48.419Z,20
2018-01-12T14:53:47.517Z,20
2018-01-12T14:54:48.866Z,20
2018-01-12T14:55:47.523Z,20